Ittoqqortoormiit

KL  EN  DA
ASIAQ
Weather Now GREENLAND SURVEY
Updated [WGT/WGST] Temperature [°C] Wind [m/s] Air pressure [hPa] Relative humidity [%] Precipitation [mm]
Present Wind chill Speed Max
24.09 02:00-2,4-6,22,8 ⇓6,3100648n/a
24.09 01:00-0,2-5,25,0 ⇓7,0100536n/a
24.09 00:000,2-4,75,1 ⇓7,0100637n/a
23.09 23:00-2,70,01,2 ⇘14,0100661n/a
23.09 22:00-3,2-7,53,2 ⇓4,8100664n/a
23.09 21:00-3,2-7,63,3 ⇙4,7100668n/a
23.09 20:00-2,50,00,8 ⇙4,3100664n/a
23.09 19:00-2,1-6,33,3 ⇙5,4100567n/a
23.09 18:00-1,6-5,12,7 ⇐3,9100574n/a
23.09 17:00-1,40,00,8 ⇖2,9100573n/a
23.09 16:00-0,5-2,81,8 ⇙4,3100463n/a
23.09 15:00-1,00,00,9 ⇗4,2100477n/a
23.09 14:00-1,5-5,43,1 ⇘5,0100383n/a
23.09 13:00-1,80,01,1 ⇗4,61003890,1
23.09 12:00-1,8-4,01,6 ⇑6,6100390n/a
23.09 11:00-1,0-2,91,5 ⇗14,0100277n/a
23.09 10:00-1,4-4,01,9 ⇖7,2100183n/a
23.09 09:00-2,2-6,63,5 ⇘9,01000950,2
23.09 08:00-2,3-6,43,1 ⇖5,71000960,2
23.09 07:00-2,2-5,92,8 ⇑4,7999930,3
23.09 06:00-2,50,01,3 ⇖3,7999970,2
23.09 05:00-2,3-4,21,4 ⇗4,5999950,1
23.09 04:00-1,8-6,74,3 ⇓6,1999840,2
23.09 03:00-2,20,00,7 ⇓6,3998950,1
23.09 02:00-1,5-5,83,6 ⇓5,9998840,1
Position: (70.48444444444,-21.95111111111)

[Back]